createdAt,value
2023-03-22T00:00:20.531Z,6.80
2023-03-22T00:00:59.714Z,7.47
2023-03-22T00:02:55.797Z,6.90
2023-03-22T00:03:36.827Z,6.83
2023-03-22T00:04:11.956Z,6.93
2023-03-22T00:04:45.447Z,7.30
2023-03-22T00:05:23.779Z,7.77
2023-03-22T00:06:01.823Z,7.77
2023-03-22T00:06:40.057Z,8.00
2023-03-22T00:07:18.836Z,7.73
2023-03-22T00:07:58.053Z,7.27
2023-03-22T00:08:38.083Z,7.33
2023-03-22T00:09:12.149Z,7.30
2023-03-22T00:09:47.731Z,6.90
2023-03-22T00:10:24.194Z,7.57
2023-03-22T00:10:57.746Z,7.17
2023-03-22T00:11:45.247Z,7.07
2023-03-22T00:12:20.856Z,6.97
2023-03-22T00:12:56.150Z,6.90
2023-03-22T00:13:30.419Z,6.37
2023-03-22T00:14:03.685Z,6.40
2023-03-22T00:14:39.125Z,6.17
2023-03-22T00:15:19.892Z,6.20
2023-03-22T00:15:59.884Z,6.57
2023-03-22T00:16:35.524Z,6.27
2023-03-22T00:17:14.717Z,6.00
2023-03-22T00:18:22.295Z,6.73
2023-03-22T00:18:57.713Z,6.70
2023-03-22T00:19:34.169Z,6.00
2023-03-22T00:20:13.800Z,6.53
2023-03-22T00:20:53.912Z,6.07
2023-03-22T00:21:36.160Z,6.27
2023-03-22T00:22:11.741Z,5.97
2023-03-22T00:22:47.342Z,6.27
2023-03-22T00:23:24.104Z,6.50
2023-03-22T00:23:58.985Z,5.93
2023-03-22T00:24:36.372Z,6.33
2023-03-22T00:25:12.326Z,6.40
2023-03-22T00:25:52.253Z,6.47
2023-03-22T00:26:27.758Z,5.80
2023-03-22T00:27:02.844Z,5.70
2023-03-22T00:27:41.307Z,6.20
2023-03-22T00:28:16.566Z,6.57
2023-03-22T00:28:54.660Z,6.27
2023-03-22T00:29:32.543Z,6.43
2023-03-22T00:30:06.376Z,6.77
2023-03-22T00:30:41.621Z,7.33
2023-03-22T00:31:16.764Z,7.07
2023-03-22T00:31:50.374Z,7.00
2023-03-22T00:32:28.889Z,7.60
2023-03-22T00:33:02.398Z,6.50
2023-03-22T00:33:35.655Z,6.50
2023-03-22T00:34:10.813Z,6.47
2023-03-22T00:35:18.574Z,6.93
2023-03-22T00:35:58.699Z,7.37
2023-03-22T00:36:33.722Z,6.60
2023-03-22T00:37:09.604Z,7.33
2023-03-22T00:37:44.789Z,7.17
2023-03-22T00:38:32.533Z,7.50
2023-03-22T00:39:14.449Z,7.73
2023-03-22T00:39:47.772Z,7.43
2023-03-22T00:40:26.499Z,6.87
2023-03-22T00:41:09.950Z,7.17
2023-03-22T00:41:48.023Z,6.90
2023-03-22T00:42:21.671Z,6.87
2023-03-22T00:42:58.114Z,7.07
2023-03-22T00:43:31.455Z,7.73
2023-03-22T00:44:10.676Z,7.60
2023-03-22T00:44:48.006Z,7.20
2023-03-22T00:45:56.008Z,8.27
2023-03-22T00:46:33.171Z,8.47
2023-03-22T00:47:12.376Z,8.90
2023-03-22T00:47:47.736Z,8.43
2023-03-22T00:48:23.817Z,7.90
2023-03-22T00:49:03.753Z,7.70
2023-03-22T00:49:43.845Z,7.77
2023-03-22T00:50:18.886Z,7.67
2023-03-22T00:50:51.801Z,7.63
2023-03-22T00:51:26.701Z,7.33
2023-03-22T00:52:01.733Z,7.30
2023-03-22T00:52:36.781Z,7.03
2023-03-22T00:53:11.925Z,7.30
2023-03-22T00:53:50.041Z,7.90
2023-03-22T00:54:23.308Z,7.87
2023-03-22T00:55:45.783Z,7.73
2023-03-22T00:56:54.079Z,7.60
2023-03-22T00:58:02.724Z,7.63
2023-03-22T00:59:13.909Z,7.63
2023-03-22T00:59:46.855Z,7.40
2023-03-22T01:00:57.861Z,8.10
2023-03-22T01:01:36.737Z,7.13
2023-03-22T01:02:18.724Z,7.37
2023-03-22T01:03:04.873Z,6.97
2023-03-22T01:03:40.215Z,6.57
2023-03-22T01:04:18.574Z,6.97
2023-03-22T01:04:54.189Z,7.17
2023-03-22T01:05:35.017Z,6.93
2023-03-22T01:06:13.684Z,7.83
2023-03-22T01:06:47.341Z,7.07
2023-03-22T01:07:21.748Z,6.70
2023-03-22T01:07:57.076Z,6.83
2023-03-22T01:08:34.633Z,6.97
2023-03-22T01:09:15.109Z,6.80
2023-03-22T01:09:51.951Z,6.73
2023-03-22T01:10:31.242Z,7.03
2023-03-22T01:11:06.474Z,7.10
2023-03-22T01:11:44.476Z,6.30
2023-03-22T01:12:19.459Z,6.83
2023-03-22T01:13:07.203Z,6.63
2023-03-22T01:13:42.003Z,6.57
2023-03-22T01:14:22.925Z,6.43
2023-03-22T01:15:00.854Z,6.20
2023-03-22T01:15:34.456Z,6.73
2023-03-22T01:16:09.591Z,6.50
2023-03-22T01:16:48.961Z,6.53
2023-03-22T01:18:02.393Z,6.27
2023-03-22T01:18:38.024Z,6.83
2023-03-22T01:19:11.636Z,6.60
2023-03-22T01:19:50.733Z,6.47
2023-03-22T01:20:25.617Z,6.13
2023-03-22T01:20:58.860Z,6.60
2023-03-22T01:21:40.781Z,6.20
2023-03-22T01:22:23.054Z,6.37
2023-03-22T01:22:55.847Z,6.33
2023-03-22T01:23:31.202Z,6.13
2023-03-22T01:24:10.765Z,5.43
2023-03-22T01:24:46.050Z,6.47
2023-03-22T01:25:25.961Z,6.27
2023-03-22T01:26:01.735Z,6.23
2023-03-22T01:26:37.802Z,6.60
2023-03-22T01:28:37.791Z,6.37
2023-03-22T01:29:16.602Z,6.57
2023-03-22T01:29:52.831Z,6.30
2023-03-22T01:30:31.515Z,6.23
2023-03-22T01:31:09.664Z,6.43
2023-03-22T01:32:35.463Z,6.20
2023-03-22T01:33:11.129Z,6.30
2023-03-22T01:33:44.490Z,6.33
2023-03-22T01:34:23.725Z,6.80
2023-03-22T01:34:58.645Z,6.83
2023-03-22T01:35:33.292Z,6.33
2023-03-22T01:36:08.550Z,6.13
2023-03-22T01:36:43.943Z,6.33
2023-03-22T01:37:27.811Z,6.67
2023-03-22T01:38:03.174Z,6.87
2023-03-22T01:39:07.538Z,6.37
2023-03-22T01:40:15.623Z,6.13
2023-03-22T01:40:48.355Z,6.30
2023-03-22T01:41:23.812Z,5.90
2023-03-22T01:41:58.587Z,5.93
2023-03-22T01:42:37.746Z,5.90
2023-03-22T01:43:12.467Z,6.40
2023-03-22T01:43:45.973Z,6.30
2023-03-22T01:44:24.286Z,5.73
2023-03-22T01:45:15.617Z,5.83
2023-03-22T01:45:55.400Z,5.37
2023-03-22T01:46:35.319Z,5.40
2023-03-22T01:47:17.758Z,6.23
2023-03-22T01:48:26.531Z,5.53
2023-03-22T01:49:09.258Z,6.00
2023-03-22T01:49:44.759Z,5.83
2023-03-22T01:50:20.662Z,5.80
2023-03-22T01:51:04.360Z,5.97
2023-03-22T01:51:47.351Z,6.10
2023-03-22T01:52:23.492Z,6.10
2023-03-22T01:52:58.296Z,5.93
2023-03-22T01:53:37.468Z,6.17
2023-03-22T01:54:29.513Z,5.47
2023-03-22T01:55:04.634Z,5.23
2023-03-22T01:55:41.358Z,5.53
2023-03-22T01:56:19.443Z,6.10
2023-03-22T01:56:55.893Z,6.10
2023-03-22T01:57:29.469Z,5.70
2023-03-22T01:58:08.274Z,5.93
2023-03-22T01:58:41.677Z,5.60
2023-03-22T01:59:20.227Z,6.10
2023-03-22T01:59:59.812Z,5.63
2023-03-22T02:00:39.052Z,6.13
2023-03-22T02:01:13.074Z,6.00
2023-03-22T02:01:53.555Z,5.77
2023-03-22T02:02:33.491Z,5.50
2023-03-22T02:03:54.447Z,5.30
2023-03-22T02:04:38.447Z,5.93
2023-03-22T02:05:22.421Z,5.87
2023-03-22T02:06:04.879Z,5.63
2023-03-22T02:06:54.444Z,5.23
2023-03-22T02:07:27.431Z,5.60
2023-03-22T02:07:59.483Z,5.33
2023-03-22T02:08:40.924Z,5.27
2023-03-22T02:09:30.563Z,5.37
2023-03-22T02:10:05.111Z,5.90
2023-03-22T02:10:46.025Z,6.13
2023-03-22T02:11:43.007Z,6.13
2023-03-22T02:12:56.170Z,5.67
2023-03-22T02:13:35.463Z,5.83
2023-03-22T02:14:14.491Z,5.67
2023-03-22T02:15:12.451Z,5.77
2023-03-22T02:17:52.045Z,5.83
2023-03-22T02:18:25.444Z,5.27
2023-03-22T02:19:16.751Z,5.27
2023-03-22T02:22:59.411Z,5.43
2023-03-22T02:24:06.557Z,5.60
2023-03-22T02:24:45.698Z,5.27
2023-03-22T02:25:24.723Z,4.97
2023-03-22T02:26:44.094Z,5.27
2023-03-22T02:28:01.225Z,6.00
2023-03-22T02:29:17.916Z,5.67
2023-03-22T02:29:57.681Z,5.53
2023-03-22T02:30:36.046Z,5.90
2023-03-22T02:31:29.007Z,5.67
2023-03-22T02:32:48.917Z,5.87
2023-03-22T02:34:48.601Z,5.97
2023-03-22T02:35:41.511Z,6.37
2023-03-22T02:36:45.150Z,6.23
2023-03-22T02:38:12.639Z,6.50
2023-03-22T02:40:14.914Z,6.20
2023-03-22T02:40:54.657Z,6.80
2023-03-22T02:41:53.817Z,6.73
2023-03-22T02:43:31.129Z,6.67
2023-03-22T02:44:19.792Z,6.37
2023-03-22T02:45:18.841Z,6.87
2023-03-22T02:46:05.758Z,7.03
2023-03-22T02:47:23.418Z,7.10
2023-03-22T02:48:10.375Z,7.20
2023-03-22T02:50:11.764Z,6.93
2023-03-22T02:51:19.137Z,7.10
2023-03-22T02:53:02.647Z,6.77
2023-03-22T02:54:03.228Z,6.33
2023-03-22T02:55:10.515Z,7.37
2023-03-22T02:56:14.632Z,6.80
2023-03-22T02:56:52.557Z,6.93
2023-03-22T02:57:37.852Z,7.17
2023-03-22T02:58:16.689Z,7.27
2023-03-22T02:58:59.741Z,6.93
2023-03-22T02:59:47.237Z,6.83
2023-03-22T03:00:35.898Z,6.87
2023-03-22T03:01:25.414Z,7.27
2023-03-22T03:02:11.916Z,7.37
2023-03-22T03:02:49.657Z,7.17
2023-03-22T03:03:30.571Z,7.37
2023-03-22T03:04:17.296Z,7.50
2023-03-22T03:05:48.799Z,7.33
2023-03-22T03:06:33.695Z,7.47
2023-03-22T03:07:11.738Z,7.13
2023-03-22T03:07:55.223Z,7.13
2023-03-22T03:08:34.851Z,7.27
2023-03-22T03:09:18.218Z,7.47
2023-03-22T03:10:05.652Z,7.00
2023-03-22T03:10:46.189Z,7.03
2023-03-22T03:11:28.046Z,7.17
2023-03-22T03:12:23.683Z,7.17
2023-03-22T03:13:02.936Z,6.73
2023-03-22T03:13:40.612Z,6.47
2023-03-22T03:15:05.705Z,6.70
2023-03-22T03:15:49.371Z,7.13
2023-03-22T03:16:27.796Z,6.90
2023-03-22T03:17:12.262Z,6.97
2023-03-22T03:17:46.047Z,7.43
2023-03-22T03:18:54.180Z,7.40
2023-03-22T03:19:32.764Z,7.23
2023-03-22T03:21:00.453Z,6.77
2023-03-22T03:22:03.670Z,7.03
2023-03-22T03:23:21.247Z,7.17
2023-03-22T03:24:03.058Z,7.00
2023-03-22T03:24:42.294Z,6.73
2023-03-22T03:25:43.484Z,7.50
2023-03-22T03:26:47.177Z,7.13
2023-03-22T03:27:37.383Z,7.37
2023-03-22T03:28:38.278Z,6.97
2023-03-22T03:30:27.329Z,7.27
2023-03-22T03:31:06.462Z,7.40
2023-03-22T03:32:08.039Z,7.03
2023-03-22T03:32:45.675Z,7.03
2023-03-22T03:33:28.180Z,7.30
2023-03-22T03:35:22.577Z,7.00
2023-03-22T03:36:49.806Z,7.57
2023-03-22T03:37:39.897Z,7.63
2023-03-22T03:38:56.595Z,7.23
2023-03-22T03:39:44.231Z,7.53
2023-03-22T03:41:00.630Z,7.43
2023-03-22T03:41:43.003Z,7.37
2023-03-22T03:42:22.720Z,7.63
2023-03-22T03:43:07.059Z,7.20
2023-03-22T03:43:48.617Z,7.63
2023-03-22T03:44:27.691Z,7.77
2023-03-22T03:45:08.688Z,7.23
2023-03-22T03:45:56.239Z,6.47
2023-03-22T03:46:35.126Z,6.83
2023-03-22T03:47:14.846Z,7.43
2023-03-22T03:48:00.460Z,7.67
2023-03-22T03:49:20.489Z,6.97
2023-03-22T03:49:59.068Z,7.27
2023-03-22T03:50:39.047Z,6.87
2023-03-22T03:51:18.841Z,7.00
2023-03-22T03:51:57.275Z,7.73
2023-03-22T03:52:32.625Z,7.27
2023-03-22T03:54:04.152Z,7.07
2023-03-22T03:55:24.062Z,7.33
2023-03-22T03:56:41.066Z,7.30
2023-03-22T03:57:29.891Z,7.63
2023-03-22T03:58:11.647Z,8.00
2023-03-22T03:58:50.268Z,7.43
2023-03-22T03:59:28.589Z,7.77
2023-03-22T04:00:09.430Z,8.10
2023-03-22T04:00:49.645Z,8.00
2023-03-22T04:01:29.002Z,8.10
2023-03-22T04:02:08.107Z,7.57
2023-03-22T04:02:47.194Z,7.97
2023-03-22T04:03:26.831Z,7.53
2023-03-22T04:04:46.994Z,7.83
2023-03-22T04:05:27.316Z,7.53
2023-03-22T04:06:08.945Z,7.47
2023-03-22T04:06:47.061Z,7.87
2023-03-22T04:07:28.479Z,8.03
2023-03-22T04:08:58.612Z,8.10
2023-03-22T04:09:51.642Z,8.50
2023-03-22T04:10:30.857Z,9.13
2023-03-22T04:11:16.882Z,8.80
2023-03-22T04:11:54.798Z,8.53
2023-03-22T04:12:41.990Z,8.83
2023-03-22T04:13:21.834Z,9.13
2023-03-22T04:14:01.574Z,8.77
2023-03-22T04:14:41.882Z,8.50
2023-03-22T04:16:02.375Z,8.93
2023-03-22T04:17:19.003Z,8.23
2023-03-22T04:18:33.649Z,8.30
2023-03-22T04:19:13.554Z,8.33
2023-03-22T04:19:53.793Z,8.10
2023-03-22T04:21:53.290Z,8.70
2023-03-22T04:23:11.508Z,8.43
2023-03-22T04:23:51.756Z,8.47
2023-03-22T04:24:30.041Z,8.50
2023-03-22T04:25:05.025Z,8.97
2023-03-22T04:25:50.229Z,9.03
2023-03-22T04:26:30.374Z,8.60
2023-03-22T04:28:04.418Z,8.50
2023-03-22T04:28:52.274Z,8.10
2023-03-22T04:29:32.391Z,8.60
2023-03-22T04:30:23.023Z,8.67
2023-03-22T04:31:06.703Z,8.97
2023-03-22T04:31:46.391Z,8.63
2023-03-22T04:32:26.089Z,9.43
2023-03-22T04:33:07.164Z,9.17
2023-03-22T04:33:47.042Z,9.33
2023-03-22T04:34:26.490Z,8.80
2023-03-22T04:35:05.874Z,9.43
2023-03-22T04:35:44.848Z,9.50
2023-03-22T04:36:25.790Z,9.20
2023-03-22T04:37:43.452Z,9.10
2023-03-22T04:39:06.276Z,8.73
2023-03-22T04:39:46.327Z,8.67
2023-03-22T04:40:35.413Z,9.53
2023-03-22T04:42:03.871Z,9.77
2023-03-22T04:42:39.278Z,9.47
2023-03-22T04:43:19.101Z,9.10
2023-03-22T04:44:03.486Z,8.40
2023-03-22T04:44:43.030Z,8.50
2023-03-22T04:45:59.783Z,8.70
2023-03-22T04:47:03.897Z,8.97
2023-03-22T04:48:28.407Z,8.70
2023-03-22T04:49:45.457Z,8.87
2023-03-22T04:50:28.274Z,9.37
2023-03-22T04:51:11.949Z,9.40
2023-03-22T04:51:52.313Z,9.77
2023-03-22T04:52:31.837Z,9.93
2023-03-22T04:53:12.578Z,9.63
2023-03-22T04:54:31.707Z,9.43
2023-03-22T04:55:11.062Z,8.63
2023-03-22T04:55:50.461Z,8.50
2023-03-22T04:56:29.021Z,8.00
2023-03-22T04:57:08.502Z,8.23
2023-03-22T04:57:48.012Z,8.70
2023-03-22T04:58:30.589Z,8.30
2023-03-22T04:59:13.802Z,8.73
2023-03-22T04:59:53.043Z,9.03
2023-03-22T05:00:42.458Z,8.07
2023-03-22T05:01:23.170Z,8.70
2023-03-22T05:02:03.386Z,9.10
2023-03-22T05:02:42.439Z,8.90
2023-03-22T05:03:25.803Z,9.37
2023-03-22T05:04:06.824Z,9.27
2023-03-22T05:04:46.125Z,9.40
2023-03-22T05:05:24.315Z,9.87
2023-03-22T05:06:06.762Z,9.47
2023-03-22T05:06:47.448Z,8.97
2023-03-22T05:07:27.516Z,10.47
2023-03-22T05:09:55.741Z,9.77
2023-03-22T05:10:39.228Z,10.47
2023-03-22T05:11:57.108Z,11.27
2023-03-22T05:12:35.124Z,11.63
2023-03-22T05:13:14.666Z,12.67
2023-03-22T05:13:53.779Z,11.93
2023-03-22T05:14:33.092Z,12.97
2023-03-22T05:15:11.847Z,13.43
2023-03-22T05:15:51.984Z,13.47
2023-03-22T05:16:31.096Z,12.37
2023-03-22T05:17:10.557Z,12.93
2023-03-22T05:17:53.344Z,13.00
2023-03-22T05:18:33.618Z,12.93
2023-03-22T05:19:14.173Z,12.40
2023-03-22T05:19:53.105Z,12.10
2023-03-22T05:20:33.123Z,12.83
2023-03-22T05:21:22.162Z,13.77
2023-03-22T05:22:02.173Z,14.63
2023-03-22T05:22:50.895Z,14.53
2023-03-22T05:23:30.662Z,13.63
2023-03-22T05:24:12.058Z,13.33
2023-03-22T05:25:29.011Z,13.50
2023-03-22T05:26:09.117Z,13.73
2023-03-22T05:27:31.591Z,14.30
2023-03-22T05:28:11.054Z,14.03
2023-03-22T05:28:51.335Z,14.03
2023-03-22T05:30:18.988Z,14.00
2023-03-22T05:30:58.006Z,14.23
2023-03-22T05:32:15.671Z,15.47
2023-03-22T05:33:04.800Z,16.30
2023-03-22T05:33:46.718Z,15.60
2023-03-22T05:34:50.798Z,16.03
2023-03-22T05:35:29.787Z,16.23
2023-03-22T05:36:08.869Z,16.67
2023-03-22T05:36:48.321Z,17.27
2023-03-22T05:38:05.897Z,17.47
2023-03-22T05:38:46.668Z,17.77
2023-03-22T05:40:57.909Z,17.03
2023-03-22T05:41:45.496Z,17.33
2023-03-22T05:44:22.949Z,17.50
2023-03-22T05:45:02.600Z,18.00
2023-03-22T05:46:06.693Z,17.37
2023-03-22T05:46:47.067Z,18.13
2023-03-22T05:47:27.081Z,17.27
2023-03-22T05:48:02.463Z,17.67
2023-03-22T05:48:49.974Z,17.90
2023-03-22T05:49:29.212Z,18.03
2023-03-22T05:50:10.137Z,17.93
2023-03-22T05:50:49.080Z,18.07
2023-03-22T05:51:28.185Z,17.73
2023-03-22T05:52:07.531Z,18.73
2023-03-22T05:53:24.384Z,19.90
2023-03-22T05:54:07.760Z,19.27
2023-03-22T05:54:46.851Z,18.63
2023-03-22T05:55:26.730Z,18.43
2023-03-22T05:56:44.338Z,18.53
2023-03-22T05:57:23.688Z,17.80
2023-03-22T05:58:05.210Z,18.13
2023-03-22T05:58:45.002Z,18.67
2023-03-22T05:59:24.696Z,17.60
2023-03-22T06:00:44.026Z,19.33
2023-03-22T06:02:01.104Z,18.53
2023-03-22T06:02:41.342Z,18.10
2023-03-22T06:03:57.872Z,18.73
2023-03-22T06:04:37.154Z,19.00
2023-03-22T06:05:17.574Z,17.90
2023-03-22T06:05:57.186Z,17.97
2023-03-22T06:06:39.848Z,16.47
2023-03-22T06:07:19.885Z,16.20
2023-03-22T06:07:59.382Z,15.90
2023-03-22T06:09:18.195Z,16.87
2023-03-22T06:10:23.023Z,17.67
2023-03-22T06:11:40.352Z,16.77
2023-03-22T06:12:22.656Z,17.03
2023-03-22T06:13:02.362Z,22.20
2023-03-22T06:14:19.051Z,33.23
2023-03-22T06:15:39.451Z,23.00
2023-03-22T06:16:56.355Z,17.33
2023-03-22T06:17:36.745Z,16.67
2023-03-22T06:18:17.382Z,17.23
2023-03-22T06:18:56.116Z,17.10
2023-03-22T06:19:59.586Z,15.83
2023-03-22T06:21:56.848Z,12.87
2023-03-22T06:23:16.184Z,11.07
2023-03-22T06:23:55.319Z,10.83
2023-03-22T06:24:34.135Z,11.27
2023-03-22T06:25:13.363Z,11.63
2023-03-22T06:25:52.847Z,10.47
2023-03-22T06:26:32.112Z,10.73
2023-03-22T06:27:49.991Z,10.63
2023-03-22T06:28:30.005Z,9.83
2023-03-22T06:29:09.311Z,10.67
2023-03-22T06:29:51.032Z,10.07
2023-03-22T06:30:30.206Z,9.63
2023-03-22T06:31:11.023Z,9.73
2023-03-22T06:31:50.134Z,9.93
2023-03-22T06:32:28.408Z,10.30
2023-03-22T06:33:08.659Z,9.60
2023-03-22T06:33:50.953Z,8.63
2023-03-22T06:34:37.955Z,9.70
2023-03-22T06:35:17.360Z,9.67
2023-03-22T06:36:05.881Z,9.57
2023-03-22T06:36:44.698Z,9.37
2023-03-22T06:37:20.269Z,8.53
2023-03-22T06:37:51.947Z,8.87
2023-03-22T06:38:30.857Z,9.20
2023-03-22T06:39:10.129Z,8.50
2023-03-22T06:40:46.956Z,8.77
2023-03-22T06:41:25.559Z,8.20
2023-03-22T06:42:31.063Z,8.03
2023-03-22T06:43:49.874Z,8.30
2023-03-22T06:44:44.870Z,8.50
2023-03-22T06:45:24.249Z,9.57
2023-03-22T06:46:41.966Z,8.80
2023-03-22T06:47:21.140Z,8.83
2023-03-22T06:47:59.993Z,8.63
2023-03-22T06:48:39.105Z,8.60
2023-03-22T06:49:19.348Z,8.60
2023-03-22T06:49:59.252Z,8.90
2023-03-22T06:50:41.323Z,8.20
2023-03-22T06:52:00.745Z,8.07
2023-03-22T06:52:40.451Z,8.57
2023-03-22T06:53:28.788Z,8.23
2023-03-22T06:54:46.468Z,8.43
2023-03-22T06:55:34.974Z,8.43
2023-03-22T06:56:24.378Z,7.77
2023-03-22T06:57:04.400Z,8.13
2023-03-22T06:57:53.188Z,8.63
2023-03-22T06:58:33.307Z,8.57
2023-03-22T06:59:15.267Z,8.83
2023-03-22T07:00:07.346Z,8.87
2023-03-22T07:00:50.745Z,9.00
2023-03-22T07:01:27.902Z,9.10
2023-03-22T07:02:06.132Z,9.50
2023-03-22T07:02:46.561Z,9.57
2023-03-22T07:03:27.181Z,9.07
2023-03-22T07:04:06.832Z,9.67
2023-03-22T07:05:11.555Z,9.40
2023-03-22T07:06:34.161Z,9.87
2023-03-22T07:07:14.321Z,9.90
2023-03-22T07:07:56.992Z,9.97
2023-03-22T07:08:33.944Z,9.97
2023-03-22T07:09:13.706Z,9.60
2023-03-22T07:10:07.953Z,9.30
2023-03-22T07:10:50.144Z,9.70
2023-03-22T07:11:26.655Z,9.77
2023-03-22T07:12:07.024Z,9.17
2023-03-22T07:12:46.285Z,8.70
2023-03-22T07:13:26.716Z,9.43
2023-03-22T07:14:09.477Z,10.53
2023-03-22T07:14:49.757Z,10.03
2023-03-22T07:15:30.968Z,9.57
2023-03-22T07:16:11.798Z,10.37
2023-03-22T07:17:00.336Z,10.00
2023-03-22T07:17:38.231Z,9.77
2023-03-22T07:18:16.782Z,10.10
2023-03-22T07:18:57.405Z,10.13
2023-03-22T07:19:37.005Z,10.77
2023-03-22T07:20:14.800Z,11.17
2023-03-22T07:20:54.156Z,11.30
2023-03-22T07:21:33.606Z,10.17
2023-03-22T07:22:22.503Z,10.30
2023-03-22T07:23:05.466Z,10.17
2023-03-22T07:23:47.475Z,10.60
2023-03-22T07:24:26.719Z,10.27
2023-03-22T07:25:05.038Z,10.10
2023-03-22T07:25:46.900Z,10.43
2023-03-22T07:26:26.532Z,9.97
2023-03-22T07:27:06.428Z,10.33
2023-03-22T07:27:45.063Z,9.53
2023-03-22T07:28:24.452Z,9.57
2023-03-22T07:29:14.183Z,9.13
2023-03-22T07:29:53.278Z,9.47
2023-03-22T07:30:29.289Z,8.40
2023-03-22T07:32:47.415Z,8.50
2023-03-22T07:34:07.116Z,8.13
2023-03-22T07:34:44.695Z,7.83
2023-03-22T07:35:27.810Z,7.43
2023-03-22T07:37:03.117Z,7.87
2023-03-22T07:37:55.427Z,7.57
2023-03-22T07:38:35.421Z,7.67
2023-03-22T07:39:19.465Z,7.33
2023-03-22T07:40:55.076Z,7.83
2023-03-22T07:42:21.422Z,7.17
2023-03-22T07:42:54.846Z,7.03
2023-03-22T07:43:47.333Z,7.50
2023-03-22T07:44:40.129Z,7.37
2023-03-22T07:45:26.771Z,6.73
2023-03-22T07:46:09.382Z,6.77
2023-03-22T07:48:22.650Z,7.27
2023-03-22T07:49:41.596Z,6.37
2023-03-22T07:51:00.818Z,6.67
2023-03-22T07:51:41.050Z,6.93
2023-03-22T07:52:20.558Z,6.80
2023-03-22T07:53:00.505Z,6.83
2023-03-22T07:53:42.965Z,6.67
2023-03-22T07:54:34.405Z,7.63
2023-03-22T07:55:13.050Z,7.03
2023-03-22T07:56:19.084Z,6.87
2023-03-22T07:56:54.222Z,7.03
2023-03-22T07:57:30.423Z,6.83
2023-03-22T07:58:12.397Z,7.03
2023-03-22T07:58:51.971Z,6.60
2023-03-22T07:59:27.972Z,6.97
2023-03-22T08:00:07.167Z,7.03
2023-03-22T08:00:43.913Z,6.53
2023-03-22T08:01:36.034Z,6.77
2023-03-22T08:02:39.678Z,6.57
2023-03-22T08:03:30.504Z,6.67
2023-03-22T08:06:32.819Z,6.73
2023-03-22T08:07:12.086Z,6.77
2023-03-22T08:07:54.696Z,6.40
2023-03-22T08:08:34.264Z,7.07
2023-03-22T08:09:22.588Z,6.70
2023-03-22T08:10:02.507Z,6.37
2023-03-22T08:10:51.595Z,6.70
2023-03-22T08:11:31.521Z,6.40
2023-03-22T08:12:36.098Z,6.40
2023-03-22T08:13:17.136Z,7.03
2023-03-22T08:13:54.622Z,6.53
2023-03-22T08:14:37.888Z,6.60
2023-03-22T08:15:57.201Z,7.23
2023-03-22T08:16:47.083Z,7.17
2023-03-22T08:18:02.439Z,6.90
2023-03-22T08:18:41.872Z,6.77
2023-03-22T08:20:48.458Z,6.60
2023-03-22T08:21:27.817Z,6.73
2023-03-22T08:23:43.228Z,7.00
2023-03-22T08:25:22.356Z,6.33
2023-03-22T08:26:42.945Z,6.10
2023-03-22T08:28:03.583Z,6.03
2023-03-22T08:28:44.579Z,5.93
2023-03-22T08:29:24.634Z,6.23
2023-03-22T08:30:06.156Z,6.03
2023-03-22T08:30:41.821Z,6.23
2023-03-22T08:31:20.302Z,5.90
2023-03-22T08:32:13.856Z,5.80
2023-03-22T08:33:17.808Z,6.03
2023-03-22T08:34:40.864Z,6.07
2023-03-22T08:35:21.265Z,5.43
2023-03-22T08:36:12.608Z,5.67
2023-03-22T08:36:55.013Z,5.77
2023-03-22T08:37:39.755Z,6.17
2023-03-22T08:39:44.634Z,5.07
2023-03-22T08:40:24.015Z,5.37
2023-03-22T08:41:04.618Z,5.47
2023-03-22T08:42:16.299Z,5.27
2023-03-22T08:42:56.199Z,5.13
2023-03-22T08:43:39.025Z,5.73
2023-03-22T08:44:52.609Z,5.70
2023-03-22T08:45:36.384Z,6.00
2023-03-22T08:46:49.249Z,5.63
2023-03-22T08:47:36.412Z,5.13
2023-03-22T08:48:15.176Z,5.73
2023-03-22T08:49:04.729Z,5.40
2023-03-22T08:50:37.939Z,5.17
2023-03-22T08:51:11.007Z,5.10
2023-03-22T08:51:44.445Z,5.43
2023-03-22T08:53:43.263Z,5.50
2023-03-22T08:54:15.469Z,5.63
2023-03-22T08:54:53.508Z,5.10
2023-03-22T08:55:35.593Z,4.77
2023-03-22T08:56:07.963Z,5.37
2023-03-22T08:56:42.899Z,5.30
2023-03-22T08:57:16.781Z,5.30
2023-03-22T09:00:48.941Z,5.03
2023-03-22T09:01:22.389Z,4.60
2023-03-22T09:02:04.736Z,4.87
2023-03-22T09:02:43.578Z,4.87
2023-03-22T09:03:26.272Z,5.00
2023-03-22T09:07:01.165Z,5.50
2023-03-22T09:08:20.017Z,5.83
2023-03-22T09:09:38.059Z,5.47
2023-03-22T09:10:52.372Z,5.83
2023-03-22T09:12:16.835Z,5.80
2023-03-22T09:12:50.108Z,6.10
2023-03-22T09:14:50.809Z,5.73
2023-03-22T09:15:29.688Z,5.70
2023-03-22T09:17:39.657Z,6.60
2023-03-22T09:18:19.669Z,7.03
2023-03-22T09:20:59.470Z,7.70
2023-03-22T09:21:39.020Z,7.17
2023-03-22T09:22:18.926Z,7.53
2023-03-22T09:23:22.141Z,6.40
2023-03-22T09:24:03.942Z,6.03
2023-03-22T09:24:43.803Z,6.73
2023-03-22T09:25:22.748Z,6.53
2023-03-22T09:26:07.157Z,6.20
2023-03-22T09:26:41.104Z,6.90
2023-03-22T09:27:15.768Z,6.60
2023-03-22T09:27:53.715Z,6.73
2023-03-22T09:28:34.817Z,6.47
2023-03-22T09:30:01.625Z,6.37
2023-03-22T09:30:40.980Z,6.37
2023-03-22T09:31:24.079Z,6.17
2023-03-22T09:31:56.421Z,5.53
2023-03-22T09:32:29.708Z,6.37
2023-03-22T09:33:09.943Z,6.73
2023-03-22T09:33:57.766Z,6.93
2023-03-22T09:34:44.714Z,7.47
2023-03-22T09:36:17.107Z,7.20
2023-03-22T09:37:21.700Z,7.07
2023-03-22T09:38:36.369Z,6.87
2023-03-22T09:39:25.954Z,6.90
2023-03-22T09:40:04.481Z,7.37
2023-03-22T09:41:08.101Z,6.93
2023-03-22T09:42:03.083Z,7.07
2023-03-22T09:44:05.706Z,6.80
2023-03-22T09:44:39.836Z,8.33
2023-03-22T09:45:39.723Z,8.33
2023-03-22T09:46:13.514Z,8.70
2023-03-22T09:46:52.734Z,8.90
2023-03-22T09:47:44.699Z,8.87
2023-03-22T09:48:38.239Z,8.37
2023-03-22T09:50:05.838Z,9.27
2023-03-22T09:51:56.373Z,8.47
2023-03-22T09:52:36.348Z,8.80
2023-03-22T09:53:18.073Z,8.23
2023-03-22T09:54:40.496Z,8.13
2023-03-22T09:55:28.085Z,8.17
2023-03-22T09:56:08.302Z,8.53
2023-03-22T09:57:39.296Z,7.13
2023-03-22T09:59:36.430Z,7.47
2023-03-22T10:00:57.361Z,7.73
2023-03-22T10:01:57.278Z,7.27
2023-03-22T10:03:21.640Z,7.73
2023-03-22T10:04:41.300Z,7.70
2023-03-22T10:05:49.518Z,7.43
2023-03-22T10:06:29.568Z,7.57
2023-03-22T10:07:34.607Z,7.50
2023-03-22T10:08:16.519Z,7.37
2023-03-22T10:09:24.785Z,7.63
2023-03-22T10:10:03.993Z,7.43
2023-03-22T10:10:56.368Z,7.17
2023-03-22T10:11:35.818Z,7.67
2023-03-22T10:12:54.474Z,7.47
2023-03-22T10:15:19.855Z,7.50
2023-03-22T10:16:06.712Z,7.40
2023-03-22T10:16:46.998Z,7.37
2023-03-22T10:17:27.496Z,7.90
2023-03-22T10:19:07.088Z,7.23
2023-03-22T10:21:09.878Z,7.50
2023-03-22T10:22:29.433Z,7.17
2023-03-22T10:23:20.327Z,7.43
2023-03-22T10:23:59.502Z,7.63
2023-03-22T10:24:38.524Z,7.87
2023-03-22T10:25:13.882Z,7.27
2023-03-22T10:25:53.737Z,6.93
2023-03-22T10:27:18.448Z,7.77
2023-03-22T10:28:15.715Z,7.90
2023-03-22T10:29:19.403Z,7.50
2023-03-22T10:30:12.743Z,7.57
2023-03-22T10:30:57.267Z,7.60
2023-03-22T10:31:34.855Z,7.10
2023-03-22T10:32:14.291Z,7.07
2023-03-22T10:32:59.153Z,7.07
2023-03-22T10:35:18.821Z,6.87
2023-03-22T10:36:08.437Z,6.53
2023-03-22T10:36:48.535Z,6.60
2023-03-22T10:37:36.831Z,6.93
2023-03-22T10:38:16.484Z,7.17
2023-03-22T10:39:35.522Z,7.23
2023-03-22T10:41:50.683Z,6.60
2023-03-22T10:42:31.685Z,6.80
2023-03-22T10:43:28.328Z,6.43
2023-03-22T10:44:07.963Z,6.50
2023-03-22T10:45:01.776Z,6.70
2023-03-22T10:46:26.563Z,6.60
2023-03-22T10:47:11.093Z,6.20
2023-03-22T10:48:03.913Z,6.07
2023-03-22T10:48:50.035Z,6.67
2023-03-22T10:49:43.921Z,6.23
2023-03-22T10:50:34.661Z,6.23
2023-03-22T10:51:26.907Z,6.27
2023-03-22T10:52:48.916Z,5.87
2023-03-22T10:53:27.337Z,5.67
2023-03-22T10:54:33.448Z,5.43
2023-03-22T10:56:33.129Z,6.40
2023-03-22T10:57:12.153Z,6.70
2023-03-22T10:58:15.806Z,6.47
2023-03-22T10:58:56.401Z,6.37
2023-03-22T10:59:51.883Z,6.67
2023-03-22T11:00:32.338Z,6.57
2023-03-22T11:01:46.242Z,5.93
2023-03-22T11:02:59.649Z,6.07
2023-03-22T11:03:46.383Z,6.40
2023-03-22T11:05:45.557Z,6.90
2023-03-22T11:07:17.737Z,6.77
2023-03-22T11:07:53.914Z,6.97
2023-03-22T11:09:01.790Z,6.90
2023-03-22T11:09:40.847Z,6.90
2023-03-22T11:10:16.487Z,6.67
2023-03-22T11:10:59.293Z,6.27
2023-03-22T11:11:32.712Z,6.87
2023-03-22T11:12:14.039Z,7.13
2023-03-22T11:12:52.651Z,6.10
2023-03-22T11:13:35.453Z,6.63
2023-03-22T11:14:18.301Z,6.80
2023-03-22T11:15:25.312Z,7.20
2023-03-22T11:16:57.659Z,7.13
2023-03-22T11:17:38.125Z,7.27
2023-03-22T11:18:19.500Z,6.93
2023-03-22T11:19:02.547Z,7.10
2023-03-22T11:19:52.858Z,6.93
2023-03-22T11:20:33.617Z,6.70
2023-03-22T11:21:11.820Z,7.23
2023-03-22T11:21:52.261Z,7.20
2023-03-22T11:22:39.333Z,6.53
2023-03-22T11:23:18.314Z,6.80